Homestead ARB Airport
KHST : now visible

Airfield :











YOU CAN JOIN US ON...

 
LOGIN :

Register | Disclaimer

   EN    FR    IT 

 









Legend :    VFR   Marginal VFR   IFR   Intensive IFR   Very Intensive IFR
Visi :
Ceiling :
>= 8 km
>= 3000ft
5 to 8 km
1000 to 3000 ft
1500m to 5 km
500 to 1000 ft
800 to 1500m
200 to 500 ft
< 800m
< 200 ft
Symbols :   Thunderstorms  Fog  Heavy snow  Heavy precipitations  Wind > 20 kt






- Airport Elevation : 5 ft


KHST - Homestead ARB

CURRENT METAR :
  • 141956Z AUTO 27015KT 10SM FEW027 SCT038 SCT047 BKN075 26/20 A2984 RMK AO2 SLP108 T02640200 $

EXPIRED METARs :
  • 141937Z AUTO 27020G24KT 10SM FEW027 BKN036 BKN048 BKN070 28/21 A2984 RMK AO2 WSHFT 27 SLP108 $
  • 141856Z AUTO 25013G23KT 10SM BKN034 BKN045 29/21 A2983 RMK AO2 SLP105 T02870212 $
  • 141800Z AUTO 22015KT 10SM BKN030 30/22 A2984 RMK AO2 WSHFT 1750 SLP108 $
  • 141756Z AUTO 25014KT 10SM SCT030 BKN038 29/22 A2984 RMK AO2 SLP108 T02940216 10296 20190 58011 $

TAF TAF KHST
Valid from the 14 at 20:00 until the 16 at 02:00 UTC


142000Z 1420/1602 27015KT 9999 SCT030 BKN080 QNH2983INS
BECMG 1500/1501 27012KT 9999 FEW050 QNH2992INS
BECMG 1505/1506 33009KT 8000 BR FEW010 QNH2997INS
BECMG 1519/1520 07009KT 9999 NSW BKN030 QNH3004INS TX30/1420Z TN16/1512Z



MET'MAP, your aeronautical weather chart ! - Copyright ORBIFLY December 2007 - Disclaimer

ORBIFLY MET'MAP TEAM :

Programming & Development : Alexandra Zaïnal
Concept & original design : Baudouin d'Aumeries
Assistance for programming : Marc-Olivier Méhu
Technical & hardware support : Manuel Goepfert

Contact : metmap@orbifly.com




SOURCES & CREDITS :

   NOAA       Earth
Advisory